Terminal Aerodrome Forecast
Issued by NWS Wilmington, OH

Current Version | Previous Version | Text Only | Print | Product List | Glossary Off
Versions: 1 2 3 4 5 6 7 8 9 10 11 12 13 14 15 16 17 18 19 20 21

000
FTUS41 KILN 250951 AAD
TAFCMH
TAF AMD
KCMH 250951Z 2510/2606 22008KT P6SM VCSH BKN025
     FM251200 22008KT P6SM SCT025 SCT040 BKN250
     FM251600 23010G18KT P6SM SCT040
     FM260000 28007KT P6SM SCT050 BKN250
     FM260300 32006KT P6SM SCT050 BKN250=

USA.gov is the U.S. government's official web portal to all federal, state and local government web resources and services.